sensor_id;sensor_type;location;lat;lon;timestamp;pressure;altitude;pressure_sealevel;temperature;humidity
57248;BME280;55809;46.618;10.764;2023-04-09T00:01:17;93010.84;;;7.86;45.60
57248;BME280;55809;46.618;10.764;2023-04-09T00:03:45;93060.41;;;7.95;46.06
57248;BME280;55809;46.618;10.764;2023-04-09T00:06:15;93005.00;;;7.59;46.38
57248;BME280;55809;46.618;10.764;2023-04-09T00:08:48;93036.50;;;7.69;46.90
57248;BME280;55809;46.618;10.764;2023-04-09T00:11:17;92974.16;;;7.27;47.14
57248;BME280;55809;46.618;10.764;2023-04-09T00:13:48;92948.72;;;7.07;47.63
57248;BME280;55809;46.618;10.764;2023-04-09T00:16:16;93022.63;;;7.60;47.78
57248;BME280;55809;46.618;10.764;2023-04-09T00:18:45;92955.22;;;7.02;48.71
57248;BME280;55809;46.618;10.764;2023-04-09T00:21:13;92997.19;;;7.32;48.58
57248;BME280;55809;46.618;10.764;2023-04-09T00:23:42;93067.97;;;7.72;48.15
57248;BME280;55809;46.618;10.764;2023-04-09T00:26:11;93017.16;;;7.35;48.91
57248;BME280;55809;46.618;10.764;2023-04-09T00:28:39;93050.91;;;7.39;48.13
57248;BME280;55809;46.618;10.764;2023-04-09T00:31:08;93035.41;;;7.11;48.75
57248;BME280;55809;46.618;10.764;2023-04-09T00:33:37;93069.34;;;7.37;48.92
57248;BME280;55809;46.618;10.764;2023-04-09T00:36:05;93021.97;;;7.08;49.76
57248;BME280;55809;46.618;10.764;2023-04-09T00:38:33;93023.06;;;6.99;49.84
57248;BME280;55809;46.618;10.764;2023-04-09T00:41:02;93024.88;;;6.85;49.88
57248;BME280;55809;46.618;10.764;2023-04-09T00:43:45;93078.38;;;7.11;50.28
57248;BME280;55809;46.618;10.764;2023-04-09T00:46:15;93019.00;;;6.68;50.69
57248;BME280;55809;46.618;10.764;2023-04-09T00:48:44;93045.56;;;6.88;51.27
57248;BME280;55809;46.618;10.764;2023-04-09T00:51:12;93042.50;;;6.82;51.30
57248;BME280;55809;46.618;10.764;2023-04-09T00:53:41;93009.72;;;6.55;52.11
57248;BME280;55809;46.618;10.764;2023-04-09T00:56:10;93085.06;;;6.87;51.50
57248;BME280;55809;46.618;10.764;2023-04-09T00:58:56;93092.78;;;6.92;51.28
57248;BME280;55809;46.618;10.764;2023-04-09T01:01:24;93027.28;;;6.52;51.87
57248;BME280;55809;46.618;10.764;2023-04-09T01:03:53;93056.06;;;6.55;51.58
57248;BME280;55809;46.618;10.764;2023-04-09T01:06:27;93058.41;;;6.64;51.54
57248;BME280;55809;46.618;10.764;2023-04-09T01:09:04;93087.19;;;6.67;51.95
57248;BME280;55809;46.618;10.764;2023-04-09T01:11:37;93064.91;;;6.60;51.43
57248;BME280;55809;46.618;10.764;2023-04-09T01:14:22;93093.00;;;6.73;52.20
57248;BME280;55809;46.618;10.764;2023-04-09T01:17:01;93085.69;;;6.70;51.07
57248;BME280;55809;46.618;10.764;2023-04-09T01:19:57;93076.91;;;6.73;51.00
57248;BME280;55809;46.618;10.764;2023-04-09T01:22:32;93085.44;;;6.86;50.90
57248;BME280;55809;46.618;10.764;2023-04-09T01:25:21;93086.19;;;6.86;50.78
57248;BME280;55809;46.618;10.764;2023-04-09T01:28:20;93093.84;;;6.84;50.76
57248;BME280;55809;46.618;10.764;2023-04-09T01:30:51;93055.22;;;6.51;50.50
57248;BME280;55809;46.618;10.764;2023-04-09T01:33:21;93093.31;;;6.68;50.96
57248;BME280;55809;46.618;10.764;2023-04-09T01:35:51;93102.88;;;6.65;51.29
57248;BME280;55809;46.618;10.764;2023-04-09T01:38:21;93098.63;;;6.61;51.74
57248;BME280;55809;46.618;10.764;2023-04-09T01:40:51;93060.47;;;6.37;52.07
57248;BME280;55809;46.618;10.764;2023-04-09T01:43:35;93065.91;;;6.44;52.07
57248;BME280;55809;46.618;10.764;2023-04-09T01:46:04;92993.41;;;5.93;52.09
57248;BME280;55809;46.618;10.764;2023-04-09T01:48:32;93061.16;;;6.30;51.50
57248;BME280;55809;46.618;10.764;2023-04-09T01:51:00;93044.88;;;6.09;51.24
57248;BME280;55809;46.618;10.764;2023-04-09T01:53:27;93064.47;;;6.17;51.31
57248;BME280;55809;46.618;10.764;2023-04-09T01:55:58;93056.47;;;6.20;50.92
57248;BME280;55809;46.618;10.764;2023-04-09T01:58:27;93107.72;;;6.49;51.10
57248;BME280;55809;46.618;10.764;2023-04-09T02:01:00;93110.34;;;6.45;51.47
57248;BME280;55809;46.618;10.764;2023-04-09T02:03:36;93047.16;;;6.07;51.40
57248;BME280;55809;46.618;10.764;2023-04-09T02:06:14;93071.38;;;6.18;51.36
57248;BME280;55809;46.618;10.764;2023-04-09T02:08:45;93097.09;;;6.22;51.54
57248;BME280;55809;46.618;10.764;2023-04-09T02:11:15;93044.66;;;5.61;52.30
57248;BME280;55809;46.618;10.764;2023-04-09T02:13:44;93105.22;;;5.96;52.48
57248;BME280;55809;46.618;10.764;2023-04-09T02:16:14;93105.59;;;5.98;52.08
57248;BME280;55809;46.618;10.764;2023-04-09T02:18:43;93106.09;;;6.07;51.74
57248;BME280;55809;46.618;10.764;2023-04-09T02:21:12;93108.09;;;6.14;51.59
57248;BME280;55809;46.618;10.764;2023-04-09T02:23:44;93109.09;;;6.02;51.18
57248;BME280;55809;46.618;10.764;2023-04-09T02:26:12;93046.72;;;5.41;51.62
57248;BME280;55809;46.618;10.764;2023-04-09T02:28:39;93064.25;;;5.38;52.44
57248;BME280;55809;46.618;10.764;2023-04-09T02:31:09;93040.00;;;5.24;52.36
57248;BME280;55809;46.618;10.764;2023-04-09T02:33:38;93075.94;;;5.53;52.02
57248;BME280;55809;46.618;10.764;2023-04-09T02:36:05;93051.25;;;5.37;52.13
57248;BME280;55809;46.618;10.764;2023-04-09T02:38:33;93060.13;;;5.45;52.53
57248;BME280;55809;46.618;10.764;2023-04-09T02:41:00;93109.06;;;5.72;51.88
57248;BME280;55809;46.618;10.764;2023-04-09T02:43:28;93046.63;;;5.34;52.29
57248;BME280;55809;46.618;10.764;2023-04-09T02:45:57;93067.69;;;5.39;52.01
57248;BME280;55809;46.618;10.764;2023-04-09T02:48:26;93112.56;;;5.76;51.89
57248;BME280;55809;46.618;10.764;2023-04-09T02:50:55;93088.66;;;5.60;51.80
57248;BME280;55809;46.618;10.764;2023-04-09T02:53:25;93095.25;;;5.66;51.88
57248;BME280;55809;46.618;10.764;2023-04-09T02:55:53;93073.66;;;5.55;51.60
57248;BME280;55809;46.618;10.764;2023-04-09T02:58:22;93118.31;;;5.78;52.02
57248;BME280;55809;46.618;10.764;2023-04-09T03:00:50;93124.81;;;5.77;51.86
57248;BME280;55809;46.618;10.764;2023-04-09T03:03:20;93090.06;;;5.50;52.26
57248;BME280;55809;46.618;10.764;2023-04-09T03:05:54;93125.56;;;5.47;52.58
57248;BME280;55809;46.618;10.764;2023-04-09T03:08:22;93119.06;;;5.48;52.56
57248;BME280;55809;46.618;10.764;2023-04-09T03:10:49;93092.59;;;5.16;52.66
57248;BME280;55809;46.618;10.764;2023-04-09T03:13:17;93121.22;;;5.39;52.85
57248;BME280;55809;46.618;10.764;2023-04-09T03:15:50;93104.59;;;5.26;52.74
57248;BME280;55809;46.618;10.764;2023-04-09T03:18:18;93060.50;;;4.90;52.95
57248;BME280;55809;46.618;10.764;2023-04-09T03:20:47;93117.16;;;5.22;53.04
57248;BME280;55809;46.618;10.764;2023-04-09T03:23:21;93069.75;;;4.96;53.21
57248;BME280;55809;46.618;10.764;2023-04-09T03:25:59;93047.72;;;4.80;53.12
57248;BME280;55809;46.618;10.764;2023-04-09T03:28:30;93021.56;;;4.66;53.12
57248;BME280;55809;46.618;10.764;2023-04-09T03:30:57;93063.22;;;4.93;53.21
57248;BME280;55809;46.618;10.764;2023-04-09T03:33:25;93114.19;;;5.27;53.45
57248;BME280;55809;46.618;10.764;2023-04-09T03:35:56;93122.53;;;5.22;53.52
57248;BME280;55809;46.618;10.764;2023-04-09T03:38:24;93121.06;;;5.02;53.96
57248;BME280;55809;46.618;10.764;2023-04-09T03:40:52;93074.13;;;4.58;54.22
57248;BME280;55809;46.618;10.764;2023-04-09T03:43:20;93080.38;;;4.66;54.08
57248;BME280;55809;46.618;10.764;2023-04-09T03:45:49;93040.94;;;4.59;53.69
57248;BME280;55809;46.618;10.764;2023-04-09T03:48:20;93106.31;;;5.11;53.75
57248;BME280;55809;46.618;10.764;2023-04-09T03:50:50;93118.00;;;5.03;54.13
57248;BME280;55809;46.618;10.764;2023-04-09T03:53:19;93122.44;;;4.92;54.33
57248;BME280;55809;46.618;10.764;2023-04-09T03:55:50;93065.03;;;4.40;54.65
57248;BME280;55809;46.618;10.764;2023-04-09T03:58:19;93119.06;;;4.72;54.91
57248;BME280;55809;46.618;10.764;2023-04-09T04:00:46;93076.97;;;4.46;55.12
57248;BME280;55809;46.618;10.764;2023-04-09T04:03:15;93117.03;;;4.88;54.01
57248;BME280;55809;46.618;10.764;2023-04-09T04:05:43;93009.84;;;4.25;53.69
57248;BME280;55809;46.618;10.764;2023-04-09T04:08:10;93082.88;;;4.78;53.91
57248;BME280;55809;46.618;10.764;2023-04-09T04:10:38;93121.81;;;5.02;53.96
57248;BME280;55809;46.618;10.764;2023-04-09T04:13:09;93123.75;;;5.02;54.12
57248;BME280;55809;46.618;10.764;2023-04-09T04:15:39;93118.94;;;4.88;54.41
57248;BME280;55809;46.618;10.764;2023-04-09T04:18:06;93055.81;;;4.37;54.33
57248;BME280;55809;46.618;10.764;2023-04-09T04:20:35;93117.91;;;4.73;54.56
57248;BME280;55809;46.618;10.764;2023-04-09T04:23:03;93108.19;;;4.61;54.84
57248;BME280;55809;46.618;10.764;2023-04-09T04:25:34;93087.78;;;4.53;54.59
57248;BME280;55809;46.618;10.764;2023-04-09T04:28:02;93132.59;;;4.83;54.42
57248;BME280;55809;46.618;10.764;2023-04-09T04:30:42;93092.59;;;4.67;53.88
57248;BME280;55809;46.618;10.764;2023-04-09T04:33:10;93121.72;;;4.95;53.89
57248;BME280;55809;46.618;10.764;2023-04-09T04:35:38;93071.53;;;4.62;53.57
57248;BME280;55809;46.618;10.764;2023-04-09T04:38:06;93094.69;;;4.77;53.27
57248;BME280;55809;46.618;10.764;2023-04-09T04:40:35;93034.09;;;4.39;53.57
57248;BME280;55809;46.618;10.764;2023-04-09T04:43:03;93149.13;;;5.11;53.15
57248;BME280;55809;46.618;10.764;2023-04-09T04:45:34;93026.19;;;4.23;53.67
57248;BME280;55809;46.618;10.764;2023-04-09T04:48:01;93144.97;;;4.91;54.09
57248;BME280;55809;46.618;10.764;2023-04-09T04:50:28;93080.97;;;4.56;53.60
57248;BME280;55809;46.618;10.764;2023-04-09T04:52:56;93138.47;;;4.92;54.39
57248;BME280;55809;46.618;10.764;2023-04-09T04:55:27;93141.75;;;4.82;54.67
57248;BME280;55809;46.618;10.764;2023-04-09T04:57:55;93139.84;;;4.82;54.52
57248;BME280;55809;46.618;10.764;2023-04-09T05:00:23;93140.38;;;4.91;54.47
57248;BME280;55809;46.618;10.764;2023-04-09T05:02:55;93139.34;;;6.02;51.71
57248;BME280;55809;46.618;10.764;2023-04-09T05:05:23;93128.88;;;6.98;48.69
57248;BME280;55809;46.618;10.764;2023-04-09T05:07:57;93085.91;;;6.17;49.05
57248;BME280;55809;46.618;10.764;2023-04-09T05:10:25;93116.88;;;5.84;50.70
57248;BME280;55809;46.618;10.764;2023-04-09T05:12:54;93096.97;;;6.15;49.66
57248;BME280;55809;46.618;10.764;2023-04-09T05:15:22;93151.31;;;7.24;48.19
57248;BME280;55809;46.618;10.764;2023-04-09T05:17:52;93129.09;;;7.89;46.53
57248;BME280;55809;46.618;10.764;2023-04-09T05:20:21;93144.78;;;8.60;45.16
57248;BME280;55809;46.618;10.764;2023-04-09T05:22:49;93029.38;;;8.16;44.95
57248;BME280;55809;46.618;10.764;2023-04-09T05:25:17;93079.81;;;8.58;44.83
57248;BME280;55809;46.618;10.764;2023-04-09T05:27:45;93104.47;;;8.78;44.64
57248;BME280;55809;46.618;10.764;2023-04-09T05:30:12;93098.31;;;8.67;45.63
57248;BME280;55809;46.618;10.764;2023-04-09T05:32:40;93093.56;;;8.35;45.44
57248;BME280;55809;46.618;10.764;2023-04-09T05:35:10;93143.66;;;8.65;45.40
57248;BME280;55809;46.618;10.764;2023-04-09T05:37:39;93141.34;;;8.67;45.03
57248;BME280;55809;46.618;10.764;2023-04-09T05:40:08;93109.81;;;8.57;44.32
57248;BME280;55809;46.618;10.764;2023-04-09T05:42:36;93047.09;;;8.31;44.01
57248;BME280;55809;46.618;10.764;2023-04-09T05:45:04;93125.69;;;9.08;43.54
57248;BME280;55809;46.618;10.764;2023-04-09T05:47:31;93058.34;;;8.76;43.76
57248;BME280;55809;46.618;10.764;2023-04-09T05:49:58;93108.34;;;9.13;43.52
57248;BME280;55809;46.618;10.764;2023-04-09T05:52:26;93110.66;;;9.39;42.45
57248;BME280;55809;46.618;10.764;2023-04-09T05:54:55;93108.72;;;9.51;41.38
57248;BME280;55809;46.618;10.764;2023-04-09T05:57:23;93095.63;;;9.60;41.49
57248;BME280;55809;46.618;10.764;2023-04-09T05:59:51;93103.66;;;9.89;40.89
57248;BME280;55809;46.618;10.764;2023-04-09T06:02:19;93103.19;;;10.15;41.10
57248;BME280;55809;46.618;10.764;2023-04-09T06:04:47;93157.72;;;10.69;40.50
57248;BME280;55809;46.618;10.764;2023-04-09T06:07:16;93113.41;;;10.67;39.82
57248;BME280;55809;46.618;10.764;2023-04-09T06:09:48;93095.63;;;10.69;39.32
57248;BME280;55809;46.618;10.764;2023-04-09T06:12:22;93115.50;;;11.04;39.09
57248;BME280;55809;46.618;10.764;2023-04-09T06:14:53;93113.78;;;11.28;38.55
57248;BME280;55809;46.618;10.764;2023-04-09T06:17:21;93155.50;;;11.76;38.21
57248;BME280;55809;46.618;10.764;2023-04-09T06:19:50;93113.50;;;11.60;37.72
57248;BME280;55809;46.618;10.764;2023-04-09T06:22:16;93109.59;;;11.68;37.49
57248;BME280;55809;46.618;10.764;2023-04-09T06:24:45;93153.19;;;12.15;37.85
57248;BME280;55809;46.618;10.764;2023-04-09T06:27:15;93101.31;;;11.86;38.34
57248;BME280;55809;46.618;10.764;2023-04-09T06:29:44;93114.03;;;11.89;38.32
57248;BME280;55809;46.618;10.764;2023-04-09T06:32:12;93080.53;;;11.76;38.10
57248;BME280;55809;46.618;10.764;2023-04-09T06:34:43;93106.06;;;12.13;38.55
57248;BME280;55809;46.618;10.764;2023-04-09T06:37:13;93094.06;;;11.76;39.31
57248;BME280;55809;46.618;10.764;2023-04-09T06:39:41;93150.25;;;12.40;37.81
57248;BME280;55809;46.618;10.764;2023-04-09T06:42:12;93152.72;;;12.58;37.73
57248;BME280;55809;46.618;10.764;2023-04-09T06:44:51;93147.13;;;12.73;37.70
57248;BME280;55809;46.618;10.764;2023-04-09T06:47:22;93115.75;;;12.75;37.62
57248;BME280;55809;46.618;10.764;2023-04-09T06:49:49;93104.53;;;12.77;37.65
57248;BME280;55809;46.618;10.764;2023-04-09T06:52:17;93145.75;;;13.19;37.03
57248;BME280;55809;46.618;10.764;2023-04-09T06:54:46;93142.19;;;13.25;36.88
57248;BME280;55809;46.618;10.764;2023-04-09T06:57:14;93067.13;;;12.95;37.92
57248;BME280;55809;46.618;10.764;2023-04-09T06:59:44;93113.22;;;13.19;36.54
57248;BME280;55809;46.618;10.764;2023-04-09T07:02:13;93151.88;;;13.77;37.01
57248;BME280;55809;46.618;10.764;2023-04-09T07:04:41;93133.44;;;13.88;38.21
57248;BME280;55809;46.618;10.764;2023-04-09T07:07:09;93097.56;;;13.57;37.81
57248;BME280;55809;46.618;10.764;2023-04-09T07:09:37;93102.91;;;13.60;39.43
57248;BME280;55809;46.618;10.764;2023-04-09T07:12:05;93142.13;;;14.03;39.67
57248;BME280;55809;46.618;10.764;2023-04-09T07:14:41;93098.69;;;13.59;39.85
57248;BME280;55809;46.618;10.764;2023-04-09T07:17:10;93081.94;;;13.41;37.56
57248;BME280;55809;46.618;10.764;2023-04-09T07:19:38;93139.81;;;14.01;38.09
57248;BME280;55809;46.618;10.764;2023-04-09T07:22:05;93077.50;;;13.74;37.55
57248;BME280;55809;46.618;10.764;2023-04-09T07:24:33;93136.34;;;14.21;36.55
57248;BME280;55809;46.618;10.764;2023-04-09T07:27:02;93122.69;;;14.48;36.81
57248;BME280;55809;46.618;10.764;2023-04-09T07:29:31;93132.75;;;14.47;36.18
57248;BME280;55809;46.618;10.764;2023-04-09T07:31:59;93135.50;;;14.04;37.40
57248;BME280;55809;46.618;10.764;2023-04-09T07:34:32;93141.78;;;14.21;37.07
57248;BME280;55809;46.618;10.764;2023-04-09T07:37:00;93141.16;;;14.13;37.26
57248;BME280;55809;46.618;10.764;2023-04-09T07:39:29;93108.22;;;14.54;37.47
57248;BME280;55809;46.618;10.764;2023-04-09T07:42:01;93128.56;;;15.02;36.15
57248;BME280;55809;46.618;10.764;2023-04-09T07:44:33;93048.94;;;14.86;35.78
57248;BME280;55809;46.618;10.764;2023-04-09T07:47:05;93120.28;;;15.26;36.33
57248;BME280;55809;46.618;10.764;2023-04-09T07:49:36;93129.53;;;15.29;35.18
57248;BME280;55809;46.618;10.764;2023-04-09T07:52:05;93079.72;;;14.99;32.29
57248;BME280;55809;46.618;10.764;2023-04-09T07:54:34;93119.44;;;15.29;32.93
57248;BME280;55809;46.618;10.764;2023-04-09T07:57:02;93125.44;;;15.04;33.47
57248;BME280;55809;46.618;10.764;2023-04-09T07:59:31;93114.63;;;15.37;33.34
57248;BME280;55809;46.618;10.764;2023-04-09T08:01:58;93098.63;;;15.39;32.60
57248;BME280;55809;46.618;10.764;2023-04-09T08:04:27;93080.09;;;15.17;33.76
57248;BME280;55809;46.618;10.764;2023-04-09T08:06:57;93108.81;;;15.51;31.33
57248;BME280;55809;46.618;10.764;2023-04-09T08:09:25;93116.16;;;15.70;31.14
57248;BME280;55809;46.618;10.764;2023-04-09T08:11:54;93113.00;;;15.72;31.01
57248;BME280;55809;46.618;10.764;2023-04-09T08:14:22;93075.59;;;15.60;30.83
57248;BME280;55809;46.618;10.764;2023-04-09T08:16:50;93117.28;;;16.18;30.25
57248;BME280;55809;46.618;10.764;2023-04-09T08:19:17;93099.63;;;16.39;29.35
57248;BME280;55809;46.618;10.764;2023-04-09T08:21:46;93107.84;;;16.52;29.40
57248;BME280;55809;46.618;10.764;2023-04-09T08:24:17;93105.53;;;16.51;29.21
57248;BME280;55809;46.618;10.764;2023-04-09T08:26:45;93099.44;;;16.88;28.65
57248;BME280;55809;46.618;10.764;2023-04-09T08:29:13;93100.31;;;17.24;28.19
57248;BME280;55809;46.618;10.764;2023-04-09T08:31:40;93090.91;;;17.63;26.10
57248;BME280;55809;46.618;10.764;2023-04-09T08:34:07;93101.78;;;18.01;26.07
57248;BME280;55809;46.618;10.764;2023-04-09T08:36:34;93071.13;;;17.85;24.73
57248;BME280;55809;46.618;10.764;2023-04-09T08:39:01;93098.50;;;18.07;24.89
57248;BME280;55809;46.618;10.764;2023-04-09T08:41:30;93082.47;;;18.31;24.26
57248;BME280;55809;46.618;10.764;2023-04-09T08:43:57;93072.59;;;18.55;23.83
57248;BME280;55809;46.618;10.764;2023-04-09T08:46:25;93086.44;;;18.73;23.62
57248;BME280;55809;46.618;10.764;2023-04-09T08:48:52;93081.13;;;18.57;23.54
57248;BME280;55809;46.618;10.764;2023-04-09T08:51:21;93086.53;;;18.48;23.34
57248;BME280;55809;46.618;10.764;2023-04-09T08:53:51;93078.50;;;18.32;23.17
57248;BME280;55809;46.618;10.764;2023-04-09T08:56:19;93093.19;;;18.25;23.83
57248;BME280;55809;46.618;10.764;2023-04-09T08:58:48;93094.44;;;18.46;23.63
57248;BME280;55809;46.618;10.764;2023-04-09T09:01:19;93046.19;;;18.30;23.92
57248;BME280;55809;46.618;10.764;2023-04-09T09:03:56;93090.69;;;18.74;23.27
57248;BME280;55809;46.618;10.764;2023-04-09T09:06:25;93091.69;;;18.90;22.95
57248;BME280;55809;46.618;10.764;2023-04-09T09:09:04;93088.00;;;18.84;22.86
57248;BME280;55809;46.618;10.764;2023-04-09T09:11:54;93048.94;;;18.61;23.41
57248;BME280;55809;46.618;10.764;2023-04-09T09:14:25;93066.75;;;18.88;22.82
57248;BME280;55809;46.618;10.764;2023-04-09T09:17:07;93091.81;;;19.17;22.72
57248;BME280;55809;46.618;10.764;2023-04-09T09:19:37;93057.09;;;18.96;22.98
57248;BME280;55809;46.618;10.764;2023-04-09T09:22:07;93063.88;;;19.23;22.96
57248;BME280;55809;46.618;10.764;2023-04-09T09:24:44;93057.09;;;18.96;22.93
57248;BME280;55809;46.618;10.764;2023-04-09T09:27:30;93082.94;;;19.04;22.13
57248;BME280;55809;46.618;10.764;2023-04-09T09:30:00;93086.66;;;19.19;22.57
57248;BME280;55809;46.618;10.764;2023-04-09T09:32:28;93039.13;;;18.95;22.31
57248;BME280;55809;46.618;10.764;2023-04-09T09:35:02;93086.06;;;19.15;22.65
57248;BME280;55809;46.618;10.764;2023-04-09T09:37:31;93080.53;;;19.06;21.46
57248;BME280;55809;46.618;10.764;2023-04-09T09:40:02;93077.63;;;19.41;22.30
57248;BME280;55809;46.618;10.764;2023-04-09T09:42:32;93073.94;;;19.66;22.21
57248;BME280;55809;46.618;10.764;2023-04-09T09:45:00;93080.84;;;19.98;22.13
57248;BME280;55809;46.618;10.764;2023-04-09T09:47:31;93086.03;;;20.33;21.91
57248;BME280;55809;46.618;10.764;2023-04-09T09:50:02;64767.38;;;-145.41;100.00
57248;BME280;55809;46.618;10.764;2023-04-09T09:52:31;64767.38;;;-145.41;100.00
57248;BME280;55809;46.618;10.764;2023-04-09T09:55:03;64767.38;;;-145.41;100.00
57248;BME280;55809;46.618;10.764;2023-04-09T09:57:38;64767.38;;;-145.41;100.00
57248;BME280;55809;46.618;10.764;2023-04-09T10:00:14;64767.38;;;-145.41;100.00
57248;BME280;55809;46.618;10.764;2023-04-09T10:02:47;64767.38;;;-145.41;100.00
57248;BME280;55809;46.618;10.764;2023-04-09T10:05:19;64767.38;;;-145.41;100.00
57248;BME280;55809;46.618;10.764;2023-04-09T10:07:54;64767.38;;;-145.41;100.00
57248;BME280;55809;46.618;10.764;2023-04-09T10:10:25;64767.38;;;-145.41;100.00
57248;BME280;55809;46.618;10.764;2023-04-09T10:12:57;64767.38;;;-145.41;100.00
57248;BME280;55809;46.618;10.764;2023-04-09T10:15:38;64767.38;;;-145.41;100.00
57248;BME280;55809;46.618;10.764;2023-04-09T10:18:08;64767.38;;;-145.41;100.00
57248;BME280;55809;46.618;10.764;2023-04-09T10:20:42;64767.38;;;-145.41;100.00
57248;BME280;55809;46.618;10.764;2023-04-09T10:23:34;64767.38;;;-145.41;100.00
57248;BME280;55809;46.618;10.764;2023-04-09T10:26:04;64767.38;;;-145.41;100.00
57248;BME280;55809;46.618;10.764;2023-04-09T10:28:33;64767.38;;;-145.41;100.00
57248;BME280;55809;46.618;10.764;2023-04-09T10:31:06;64767.38;;;-145.41;100.00
57248;BME280;55809;46.618;10.764;2023-04-09T10:33:35;64767.38;;;-145.41;100.00
57248;BME280;55809;46.618;10.764;2023-04-09T10:36:08;64767.38;;;-145.41;100.00
57248;BME280;55809;46.618;10.764;2023-04-09T10:38:39;64767.38;;;-145.41;100.00
57248;BME280;55809;46.618;10.764;2023-04-09T10:41:14;64767.38;;;-145.41;100.00
57248;BME280;55809;46.618;10.764;2023-04-09T10:43:46;64767.38;;;-145.41;100.00
57248;BME280;55809;46.618;10.764;2023-04-09T10:46:29;64767.38;;;-145.41;100.00
57248;BME280;55809;46.618;10.764;2023-04-09T10:49:07;64767.38;;;-145.41;100.00
57248;BME280;55809;46.618;10.764;2023-04-09T10:51:36;64767.38;;;-145.41;100.00
57248;BME280;55809;46.618;10.764;2023-04-09T10:54:05;64767.38;;;-145.41;100.00
57248;BME280;55809;46.618;10.764;2023-04-09T10:56:34;93029.84;;;16.97;25.48
57248;BME280;55809;46.618;10.764;2023-04-09T10:59:02;93036.13;;;16.55;26.08
57248;BME280;55809;46.618;10.764;2023-04-09T11:01:33;92995.16;;;15.59;26.40
57248;BME280;55809;46.618;10.764;2023-04-09T11:04:15;93030.19;;;15.57;27.66
57248;BME280;55809;46.618;10.764;2023-04-09T11:06:44;93010.88;;;16.26;26.68
57248;BME280;55809;46.618;10.764;2023-04-09T11:09:13;93010.53;;;17.04;25.05
57248;BME280;55809;46.618;10.764;2023-04-09T11:11:42;92977.72;;;16.69;25.50
57248;BME280;55809;46.618;10.764;2023-04-09T11:14:18;92990.16;;;17.08;25.66
57248;BME280;55809;46.618;10.764;2023-04-09T11:16:50;93014.91;;;16.88;25.64
57248;BME280;55809;46.618;10.764;2023-04-09T11:19:19;93003.00;;;16.15;25.26
57248;BME280;55809;46.618;10.764;2023-04-09T11:21:59;93010.16;;;16.09;27.08
57248;BME280;55809;46.618;10.764;2023-04-09T11:24:40;92923.00;;;15.83;26.53
57248;BME280;55809;46.618;10.764;2023-04-09T11:27:13;92992.28;;;16.50;25.58
57248;BME280;55809;46.618;10.764;2023-04-09T11:29:45;93004.28;;;16.39;26.91
57248;BME280;55809;46.618;10.764;2023-04-09T11:32:16;92952.75;;;16.83;26.21
57248;BME280;55809;46.618;10.764;2023-04-09T11:34:52;92950.94;;;17.41;24.82
57248;BME280;55809;46.618;10.764;2023-04-09T11:37:22;92992.84;;;17.81;24.80
57248;BME280;55809;46.618;10.764;2023-04-09T11:39:56;92973.38;;;17.45;22.74
57248;BME280;55809;46.618;10.764;2023-04-09T11:42:33;92896.59;;;16.73;24.65
57248;BME280;55809;46.618;10.764;2023-04-09T11:45:17;92961.91;;;17.02;23.98
57248;BME280;55809;46.618;10.764;2023-04-09T11:47:48;92959.94;;;16.77;24.77
57248;BME280;55809;46.618;10.764;2023-04-09T11:50:18;92966.53;;;16.25;25.95
57248;BME280;55809;46.618;10.764;2023-04-09T11:52:50;92922.19;;;15.41;26.22
57248;BME280;55809;46.618;10.764;2023-04-09T11:55:33;92947.16;;;15.36;25.86
57248;BME280;55809;46.618;10.764;2023-04-09T11:58:12;92958.88;;;15.33;26.53
57248;BME280;55809;46.618;10.764;2023-04-09T12:00:53;92985.16;;;15.23;24.69
57248;BME280;55809;46.618;10.764;2023-04-09T12:04:01;92905.63;;;14.37;28.61
57248;BME280;55809;46.618;10.764;2023-04-09T12:06:55;92927.25;;;14.24;29.78
57248;BME280;55809;46.618;10.764;2023-04-09T12:09:33;92903.06;;;14.14;29.52
57248;BME280;55809;46.618;10.764;2023-04-09T12:15:32;92889.13;;;14.81;29.66
57248;BME280;55809;46.618;10.764;2023-04-09T12:18:12;92981.53;;;15.59;28.85
57248;BME280;55809;46.618;10.764;2023-04-09T12:20:58;92917.63;;;15.21;28.56
57248;BME280;55809;46.618;10.764;2023-04-09T12:23:29;92948.34;;;15.35;28.86
57248;BME280;55809;46.618;10.764;2023-04-09T12:26:01;92919.78;;;15.14;28.14
57248;BME280;55809;46.618;10.764;2023-04-09T12:28:29;92917.28;;;15.03;28.96
57248;BME280;55809;46.618;10.764;2023-04-09T12:31:08;92951.44;;;15.37;30.18
57248;BME280;55809;46.618;10.764;2023-04-09T12:33:39;92978.09;;;15.42;28.24
57248;BME280;55809;46.618;10.764;2023-04-09T12:36:10;92972.63;;;15.58;28.88
57248;BME280;55809;46.618;10.764;2023-04-09T12:38:39;92956.47;;;15.51;26.91
57248;BME280;55809;46.618;10.764;2023-04-09T12:41:12;92925.19;;;15.30;26.59
57248;BME280;55809;46.618;10.764;2023-04-09T12:43:54;92973.38;;;15.59;26.66
57248;BME280;55809;46.618;10.764;2023-04-09T12:46:38;92937.22;;;15.29;26.39
57248;BME280;55809;46.618;10.764;2023-04-09T12:49:37;92895.81;;;15.09;25.48
57248;BME280;55809;46.618;10.764;2023-04-09T12:52:19;92957.50;;;15.57;25.49
57248;BME280;55809;46.618;10.764;2023-04-09T12:55:04;92926.06;;;15.40;27.73
57248;BME280;55809;46.618;10.764;2023-04-09T12:57:36;92882.84;;;14.84;25.89
57248;BME280;55809;46.618;10.764;2023-04-09T13:00:43;92906.13;;;14.85;28.35
57248;BME280;55809;46.618;10.764;2023-04-09T13:04:12;92845.06;;;14.40;26.28
57248;BME280;55809;46.618;10.764;2023-04-09T13:10:37;92837.66;;;14.24;29.19
57248;BME280;55809;46.618;10.764;2023-04-09T13:13:22;92843.09;;;14.41;27.94
57248;BME280;55809;46.618;10.764;2023-04-09T13:16:06;92826.81;;;14.41;26.75
57248;BME280;55809;46.618;10.764;2023-04-09T13:18:46;92930.28;;;15.12;27.97
57248;BME280;55809;46.618;10.764;2023-04-09T13:21:23;92904.84;;;14.89;26.29
57248;BME280;55809;46.618;10.764;2023-04-09T13:34:37;92853.06;;;13.95;27.05